createdAt,value
2017-07-25T00:02:19.581Z,83.36
2017-07-25T00:04:49.326Z,83.65
2017-07-25T00:07:19.049Z,83.45
2017-07-25T00:09:48.783Z,84.11
2017-07-25T00:12:18.511Z,84.76
2017-07-25T00:14:48.235Z,83.91
2017-07-25T00:17:18.003Z,84.69
2017-07-25T00:19:47.720Z,84.19
2017-07-25T00:22:17.440Z,84.83
2017-07-25T00:24:47.186Z,85.02
2017-07-25T00:27:16.914Z,85.14
2017-07-25T00:29:46.653Z,84.98
2017-07-25T00:32:16.233Z,84.86
2017-07-25T00:34:45.977Z,85.21
2017-07-25T00:37:15.711Z,85.35
2017-07-25T00:39:45.444Z,85.17
2017-07-25T00:42:15.194Z,85.21
2017-07-25T00:44:44.933Z,85.51
2017-07-25T00:47:14.659Z,85.20
2017-07-25T00:49:44.384Z,85.59
2017-07-25T00:52:14.157Z,85.07
2017-07-25T00:54:43.911Z,85.59
2017-07-25T00:57:13.638Z,84.74
2017-07-25T00:59:43.391Z,84.79
2017-07-25T01:02:13.116Z,85.33
2017-07-25T01:04:42.848Z,84.49
2017-07-25T01:07:12.429Z,84.76
2017-07-25T01:09:42.139Z,83.90
2017-07-25T01:12:11.864Z,84.23
2017-07-25T01:14:41.599Z,84.72
2017-07-25T01:17:11.157Z,84.54
2017-07-25T01:19:40.885Z,84.48
2017-07-25T01:22:10.621Z,84.56
2017-07-25T01:24:40.333Z,83.95
2017-07-25T01:27:10.072Z,83.86
2017-07-25T01:29:39.792Z,84.13
2017-07-25T01:32:09.529Z,84.70
2017-07-25T01:34:39.280Z,84.53
2017-07-25T01:37:09.005Z,83.93
2017-07-25T01:39:38.741Z,83.66
2017-07-25T01:42:08.473Z,83.55
2017-07-25T01:44:38.211Z,83.49
2017-07-25T01:47:08.628Z,83.22
2017-07-25T01:49:38.372Z,83.79
2017-07-25T01:52:08.123Z,84.32
2017-07-25T01:54:37.876Z,84.00
2017-07-25T01:57:08.300Z,83.79
2017-07-25T01:59:38.013Z,84.13
2017-07-25T02:02:07.744Z,84.10
2017-07-25T02:04:37.319Z,83.97
2017-07-25T02:07:07.052Z,84.07
2017-07-25T02:09:36.778Z,84.08
2017-07-25T02:12:06.536Z,84.28
2017-07-25T02:14:36.293Z,84.56
2017-07-25T02:17:06.022Z,84.15
2017-07-25T02:19:35.751Z,84.51
2017-07-25T02:22:05.479Z,84.09
2017-07-25T02:24:35.225Z,84.31
2017-07-25T02:27:04.985Z,85.07
2017-07-25T02:29:34.538Z,85.00
2017-07-25T02:32:04.289Z,84.91
2017-07-25T02:34:34.020Z,84.89
2017-07-25T02:37:03.738Z,84.81
2017-07-25T02:39:33.526Z,84.04
2017-07-25T02:42:03.241Z,84.69
2017-07-25T02:44:32.978Z,84.76
2017-07-25T02:47:02.710Z,84.35
2017-07-25T02:49:32.426Z,84.49
2017-07-25T02:52:02.164Z,84.86
2017-07-25T02:54:31.895Z,84.81
2017-07-25T02:57:01.625Z,84.48
2017-07-25T02:59:31.382Z,84.25
2017-07-25T03:02:01.097Z,84.17
2017-07-25T03:04:30.815Z,83.51
2017-07-25T03:07:00.560Z,84.10
2017-07-25T03:09:30.272Z,83.86
2017-07-25T03:12:00.004Z,83.15
2017-07-25T03:14:29.729Z,82.74
2017-07-25T03:16:59.469Z,83.22
2017-07-25T03:19:29.201Z,83.57
2017-07-25T03:21:58.940Z,83.48
2017-07-25T03:24:28.680Z,83.84
2017-07-25T03:26:58.434Z,83.48
2017-07-25T03:29:28.156Z,83.30
2017-07-25T03:31:57.710Z,82.99
2017-07-25T03:34:27.252Z,82.64
2017-07-25T03:36:56.991Z,81.66
2017-07-25T03:39:26.717Z,82.21
2017-07-25T03:41:56.449Z,81.55
2017-07-25T03:44:26.195Z,81.60
2017-07-25T03:46:55.917Z,81.99
2017-07-25T03:49:25.650Z,81.98
2017-07-25T03:51:55.356Z,81.67
2017-07-25T03:54:25.083Z,81.94
2017-07-25T03:56:54.812Z,82.39
2017-07-25T03:59:24.532Z,82.66
2017-07-25T04:01:54.275Z,82.37
2017-07-25T04:04:23.999Z,82.02
2017-07-25T04:06:53.734Z,81.92
2017-07-25T04:09:23.468Z,81.87
2017-07-25T04:11:53.190Z,81.88
2017-07-25T04:14:22.911Z,82.25
2017-07-25T04:16:52.645Z,82.07
2017-07-25T04:19:22.392Z,81.89
2017-07-25T04:21:52.168Z,81.78
2017-07-25T04:24:21.901Z,82.09
2017-07-25T04:26:51.613Z,82.54
2017-07-25T04:29:21.342Z,82.52
2017-07-25T04:31:51.068Z,82.41
2017-07-25T04:34:20.824Z,82.90
2017-07-25T04:36:50.554Z,82.32
2017-07-25T04:39:20.270Z,81.58
2017-07-25T04:41:50.010Z,82.13
2017-07-25T04:44:19.927Z,82.25
2017-07-25T04:46:49.664Z,82.40
2017-07-25T04:49:19.516Z,82.87
2017-07-25T04:51:49.369Z,82.44
2017-07-25T04:54:19.268Z,82.10
2017-07-25T04:56:48.972Z,82.20
2017-07-25T04:59:18.697Z,81.98
2017-07-25T05:01:48.436Z,81.30
2017-07-25T05:04:18.172Z,82.28
2017-07-25T05:06:47.900Z,81.73
2017-07-25T05:09:17.639Z,81.21
2017-07-25T05:11:47.949Z,82.27
2017-07-25T05:14:17.661Z,81.71
2017-07-25T05:16:47.406Z,81.69
2017-07-25T05:19:17.145Z,80.79
2017-07-25T05:21:46.916Z,80.82
2017-07-25T05:24:16.662Z,80.87
2017-07-25T05:26:46.388Z,80.82
2017-07-25T05:29:15.937Z,81.38
2017-07-25T05:31:45.700Z,80.80
2017-07-25T05:34:15.417Z,80.75
2017-07-25T05:36:45.152Z,80.42
2017-07-25T05:39:14.886Z,80.20
2017-07-25T05:41:44.613Z,79.52
2017-07-25T05:44:14.350Z,79.50
2017-07-25T05:46:44.065Z,79.06
2017-07-25T05:49:13.801Z,78.82
2017-07-25T05:51:43.538Z,79.02
2017-07-25T05:54:13.272Z,78.58
2017-07-25T05:56:43.003Z,77.44
2017-07-25T05:59:12.746Z,77.67
2017-07-25T06:01:43.181Z,76.47
2017-07-25T06:04:12.912Z,76.05
2017-07-25T06:06:42.624Z,76.81
2017-07-25T06:09:12.362Z,76.55
2017-07-25T06:11:42.100Z,77.05
2017-07-25T06:14:11.824Z,76.81
2017-07-25T06:16:41.558Z,75.79
2017-07-25T06:19:11.284Z,76.29
2017-07-25T06:21:41.048Z,76.67
2017-07-25T06:24:10.781Z,76.14
2017-07-25T06:26:40.505Z,76.86
2017-07-25T06:29:10.241Z,75.39
2017-07-25T06:31:39.977Z,75.54
2017-07-25T06:34:09.727Z,75.51
2017-07-25T06:36:39.444Z,74.94
2017-07-25T06:39:09.184Z,72.83
2017-07-25T06:41:38.921Z,72.94
2017-07-25T06:44:08.696Z,73.44
2017-07-25T06:46:38.413Z,72.62
2017-07-25T06:49:09.613Z,73.09
2017-07-25T06:51:39.332Z,73.17
2017-07-25T06:54:09.065Z,74.08
2017-07-25T06:56:38.813Z,73.86
2017-07-25T06:59:08.541Z,73.80
2017-07-25T07:01:38.273Z,74.28
2017-07-25T07:04:07.996Z,75.03
2017-07-25T07:06:37.736Z,73.94
2017-07-25T07:09:07.469Z,74.42
2017-07-25T07:11:37.208Z,75.68
2017-07-25T07:14:06.944Z,76.41
2017-07-25T07:16:36.685Z,77.36
2017-07-25T07:19:06.417Z,76.93
2017-07-25T07:21:36.161Z,77.93
2017-07-25T07:24:05.882Z,76.58
2017-07-25T07:26:35.618Z,75.34
2017-07-25T07:29:05.441Z,74.97
2017-07-25T07:31:35.149Z,74.10
2017-07-25T07:34:04.877Z,74.11
2017-07-25T07:36:34.612Z,73.67
2017-07-25T07:39:03.593Z,72.49
2017-07-25T07:41:33.332Z,72.81
2017-07-25T07:44:03.076Z,73.05
2017-07-25T07:46:32.803Z,73.60
2017-07-25T07:49:02.533Z,73.98
2017-07-25T07:51:32.067Z,73.51
2017-07-25T07:54:01.653Z,73.32
2017-07-25T07:56:31.173Z,74.62
2017-07-25T07:59:00.727Z,73.78
2017-07-25T08:01:30.496Z,73.45
2017-07-25T08:04:00.237Z,70.95
2017-07-25T08:06:29.969Z,70.84
2017-07-25T08:08:59.709Z,68.82
2017-07-25T08:11:29.440Z,68.72
2017-07-25T08:14:00.049Z,69.47
2017-07-25T08:16:29.802Z,66.65
2017-07-25T08:18:59.242Z,67.92
2017-07-25T08:21:28.672Z,67.78
2017-07-25T08:23:58.110Z,68.50
2017-07-25T08:26:27.858Z,68.16
2017-07-25T08:28:57.291Z,69.40
2017-07-25T08:31:26.800Z,69.89
2017-07-25T08:33:56.231Z,68.92
2017-07-25T08:36:25.964Z,69.92
2017-07-25T08:38:55.410Z,70.48
2017-07-25T08:41:24.847Z,69.60
2017-07-25T08:43:54.585Z,66.23
2017-07-25T08:46:24.024Z,66.27
2017-07-25T08:48:53.467Z,65.79
2017-07-25T08:51:22.934Z,65.32
2017-07-25T08:53:52.377Z,64.26
2017-07-25T08:56:21.828Z,62.98
2017-07-25T08:58:51.258Z,63.70
2017-07-25T09:01:20.705Z,63.24
2017-07-25T09:03:50.148Z,62.36
2017-07-25T09:06:19.593Z,61.82
2017-07-25T09:08:49.027Z,62.16
2017-07-25T09:11:18.476Z,62.89
2017-07-25T09:13:47.932Z,63.68
2017-07-25T09:16:17.373Z,63.47
2017-07-25T09:18:46.830Z,63.11
2017-07-25T09:21:16.300Z,63.21
2017-07-25T09:23:53.225Z,63.38
2017-07-25T09:26:22.692Z,62.85
2017-07-25T09:28:52.140Z,62.69
2017-07-25T09:31:21.593Z,63.54
2017-07-25T09:33:51.027Z,63.14
2017-07-25T09:36:20.473Z,62.29
2017-07-25T09:38:49.913Z,63.34
2017-07-25T09:41:19.369Z,62.52
2017-07-25T09:43:48.801Z,62.10
2017-07-25T09:46:18.293Z,60.85
2017-07-25T09:48:47.758Z,60.79
2017-07-25T09:51:17.208Z,59.06
2017-07-25T09:53:46.642Z,59.93
2017-07-25T09:56:16.095Z,59.56
2017-07-25T09:58:45.534Z,60.19
2017-07-25T10:01:15.005Z,59.74
2017-07-25T10:03:44.476Z,55.79
2017-07-25T10:06:13.558Z,55.87
2017-07-25T10:08:42.988Z,57.24
2017-07-25T10:11:12.433Z,58.13
2017-07-25T10:13:41.877Z,58.75
2017-07-25T10:16:11.308Z,57.48
2017-07-25T10:18:40.950Z,58.39
2017-07-25T10:21:10.384Z,57.81
2017-07-25T10:23:39.820Z,58.51
2017-07-25T10:26:09.269Z,59.29
2017-07-25T10:28:38.733Z,56.91
2017-07-25T10:31:08.166Z,56.91
2017-07-25T10:33:37.621Z,56.48
2017-07-25T10:36:07.092Z,56.71
2017-07-25T10:38:36.529Z,58.18
2017-07-25T10:41:05.998Z,57.50
2017-07-25T10:43:35.451Z,57.72
2017-07-25T10:46:04.916Z,58.24
2017-07-25T10:48:34.345Z,59.83
2017-07-25T10:51:03.807Z,60.16
2017-07-25T10:53:33.252Z,60.61
2017-07-25T10:56:02.701Z,60.46
2017-07-25T10:58:32.141Z,59.34
2017-07-25T11:01:02.258Z,58.40
2017-07-25T11:03:31.722Z,58.16
2017-07-25T11:06:01.161Z,55.00
2017-07-25T11:08:30.601Z,55.64
2017-07-25T11:11:00.049Z,55.05
2017-07-25T11:13:29.480Z,55.36
2017-07-25T11:15:58.936Z,56.10
2017-07-25T11:18:28.355Z,55.85
2017-07-25T11:20:57.572Z,54.97
2017-07-25T11:23:27.022Z,54.53
2017-07-25T11:25:56.490Z,52.59
2017-07-25T11:28:26.401Z,55.81
2017-07-25T11:30:55.852Z,54.56
2017-07-25T11:33:25.297Z,54.87
2017-07-25T11:35:54.757Z,55.62
2017-07-25T11:38:24.481Z,55.08
2017-07-25T11:40:53.918Z,56.75
2017-07-25T11:43:23.353Z,57.11
2017-07-25T11:45:52.808Z,56.31
2017-07-25T11:48:22.253Z,55.92
2017-07-25T11:50:51.684Z,55.77
2017-07-25T11:53:21.142Z,56.28
2017-07-25T11:55:50.531Z,56.29
2017-07-25T11:58:19.972Z,54.94
2017-07-25T12:00:49.415Z,53.86
2017-07-25T12:03:18.864Z,53.92
2017-07-25T12:05:48.340Z,53.73
2017-07-25T12:08:17.794Z,52.53
2017-07-25T12:10:47.264Z,52.88
2017-07-25T12:13:16.703Z,53.19
2017-07-25T12:15:46.144Z,53.42
2017-07-25T12:18:15.596Z,54.74
2017-07-25T12:20:56.192Z,55.00
2017-07-25T12:23:25.280Z,54.13
2017-07-25T12:25:54.735Z,53.43
2017-07-25T12:28:24.189Z,53.80
2017-07-25T12:30:53.633Z,52.68
2017-07-25T12:33:23.078Z,54.01
2017-07-25T12:35:52.554Z,53.61
2017-07-25T12:38:21.999Z,53.27
2017-07-25T12:40:51.439Z,52.60
2017-07-25T12:43:20.901Z,51.60
2017-07-25T12:45:50.340Z,45.53
2017-07-25T12:48:19.783Z,41.26
2017-07-25T12:50:49.237Z,44.85
2017-07-25T12:53:18.755Z,46.32
2017-07-25T12:55:48.195Z,47.52
2017-07-25T12:58:17.648Z,47.89
2017-07-25T13:01:13.017Z,48.35
2017-07-25T13:03:42.329Z,51.40
2017-07-25T13:06:11.296Z,51.62
2017-07-25T13:08:40.741Z,53.02
2017-07-25T13:11:10.197Z,53.26
2017-07-25T13:13:39.637Z,53.62
2017-07-25T13:16:09.073Z,54.07
2017-07-25T13:18:38.545Z,54.37
2017-07-25T13:21:07.993Z,53.13
2017-07-25T13:23:37.449Z,52.46
2017-07-25T13:26:06.917Z,49.60
2017-07-25T13:28:36.374Z,48.28
2017-07-25T13:31:05.816Z,49.92
2017-07-25T13:33:35.261Z,51.20
2017-07-25T13:36:04.742Z,52.26
2017-07-25T13:38:34.203Z,56.14
2017-07-25T13:41:03.655Z,54.48
2017-07-25T13:43:33.113Z,57.68
2017-07-25T13:46:02.540Z,58.62
2017-07-25T13:48:31.989Z,60.43
2017-07-25T13:51:01.416Z,56.78
2017-07-25T13:53:30.900Z,58.60
2017-07-25T13:56:00.349Z,60.22
2017-07-25T13:58:30.532Z,58.49
2017-07-25T14:00:59.973Z,60.54
2017-07-25T14:03:29.442Z,60.91
2017-07-25T14:05:58.910Z,60.34
2017-07-25T14:08:28.368Z,59.81
2017-07-25T14:10:57.813Z,54.72
2017-07-25T14:13:27.289Z,52.20
2017-07-25T14:15:56.735Z,49.07
2017-07-25T14:18:26.183Z,46.10
2017-07-25T14:20:55.629Z,46.48
2017-07-25T14:23:25.161Z,41.76
2017-07-25T14:25:54.594Z,43.22
2017-07-25T14:28:24.009Z,42.81
2017-07-25T14:30:53.544Z,41.91
2017-07-25T14:33:22.978Z,43.35
2017-07-25T14:35:52.409Z,45.25
2017-07-25T14:38:21.868Z,47.80
2017-07-25T14:40:51.316Z,48.45
2017-07-25T14:43:20.774Z,50.09
2017-07-25T14:45:50.237Z,51.71
2017-07-25T14:48:19.677Z,51.43
2017-07-25T14:50:49.120Z,51.92
2017-07-25T14:53:18.608Z,51.89
2017-07-25T14:55:48.048Z,47.57
2017-07-25T14:58:17.505Z,47.61
2017-07-25T15:00:46.977Z,49.97
2017-07-25T15:03:16.416Z,49.55
2017-07-25T15:05:45.861Z,49.79
2017-07-25T15:08:15.321Z,47.71
2017-07-25T15:10:44.904Z,47.11
2017-07-25T15:13:14.601Z,45.38
2017-07-25T15:15:45.089Z,46.22
2017-07-25T15:18:15.207Z,43.36
2017-07-25T15:20:45.029Z,42.19
2017-07-25T15:23:15.240Z,44.24
2017-07-25T15:25:45.467Z,44.62
2017-07-25T15:28:14.910Z,41.70
2017-07-25T15:30:45.812Z,40.72
2017-07-25T15:33:15.405Z,43.61
2017-07-25T15:35:45.663Z,40.58
2017-07-25T15:38:15.436Z,39.59
2017-07-25T15:40:45.578Z,40.68
2017-07-25T15:43:15.764Z,40.87
2017-07-25T15:45:45.313Z,42.27
2017-07-25T15:48:15.221Z,40.97
2017-07-25T15:50:45.352Z,43.65
2017-07-25T15:53:16.089Z,45.16
2017-07-25T15:55:45.627Z,44.96
2017-07-25T15:58:15.607Z,42.13
2017-07-25T16:00:45.096Z,43.93
2017-07-25T16:03:14.848Z,43.87
2017-07-25T16:05:44.685Z,42.08
2017-07-25T16:08:14.992Z,39.40
2017-07-25T16:10:44.985Z,41.17
2017-07-25T16:13:14.784Z,43.62
2017-07-25T16:15:45.017Z,46.33
2017-07-25T16:18:14.902Z,49.27
2017-07-25T16:20:45.014Z,50.54
2017-07-25T16:23:14.463Z,50.31
2017-07-25T16:25:45.212Z,50.71
2017-07-25T16:28:14.948Z,51.96
2017-07-25T16:30:44.984Z,53.37
2017-07-25T16:33:14.925Z,53.46
2017-07-25T16:35:44.706Z,53.63
2017-07-25T16:38:14.169Z,53.66
2017-07-25T16:40:43.738Z,55.03
2017-07-25T16:43:13.218Z,55.58
2017-07-25T16:45:43.393Z,55.88
2017-07-25T16:48:12.949Z,56.81
2017-07-25T16:50:43.047Z,56.74
2017-07-25T16:53:12.781Z,57.05
2017-07-25T16:55:43.088Z,57.56
2017-07-25T16:58:12.960Z,58.62
2017-07-25T17:00:42.713Z,59.34
2017-07-25T17:03:12.434Z,60.20
2017-07-25T17:05:41.890Z,60.42
2017-07-25T17:08:11.649Z,60.83
2017-07-25T17:10:41.597Z,60.99
2017-07-25T17:13:11.514Z,60.94
2017-07-25T17:15:41.313Z,60.94
2017-07-25T17:18:11.552Z,60.65
2017-07-25T17:20:41.256Z,61.10
2017-07-25T17:23:10.917Z,60.86
2017-07-25T17:25:40.913Z,61.89
2017-07-25T17:28:10.564Z,61.90
2017-07-25T17:30:40.591Z,62.74
2017-07-25T17:33:10.209Z,62.93
2017-07-25T17:35:40.201Z,62.89
2017-07-25T17:38:09.943Z,63.71
2017-07-25T17:40:41.214Z,63.65
2017-07-25T17:43:11.517Z,64.46
2017-07-25T17:45:41.461Z,64.79
2017-07-25T17:48:11.583Z,64.92
2017-07-25T17:50:42.184Z,65.33
2017-07-25T17:53:11.892Z,66.33
2017-07-25T17:55:42.075Z,66.55
2017-07-25T17:58:11.837Z,67.81
2017-07-25T18:00:41.850Z,69.68
2017-07-25T18:03:12.228Z,70.67
2017-07-25T18:05:42.194Z,70.72
2017-07-25T18:08:12.361Z,70.94
2017-07-25T18:10:42.184Z,71.24
2017-07-25T18:13:12.222Z,71.90
2017-07-25T18:15:42.214Z,72.43
2017-07-25T18:18:12.852Z,72.92
2017-07-25T18:20:42.588Z,74.17
2017-07-25T18:23:12.332Z,74.66
2017-07-25T18:25:42.190Z,75.00
2017-07-25T18:28:12.053Z,75.28
2017-07-25T18:30:42.410Z,75.58
2017-07-25T18:33:12.217Z,76.31
2017-07-25T18:35:41.956Z,76.28
2017-07-25T18:38:11.968Z,77.01
2017-07-25T18:40:41.698Z,77.01
2017-07-25T18:43:11.784Z,77.31
2017-07-25T18:45:41.543Z,77.71
2017-07-25T18:48:11.269Z,77.60
2017-07-25T18:50:41.002Z,77.58
2017-07-25T18:53:10.762Z,77.93
2017-07-25T18:55:41.061Z,77.61
2017-07-25T18:58:10.917Z,77.66
2017-07-25T19:00:40.879Z,77.46
2017-07-25T19:03:10.369Z,77.49
2017-07-25T19:05:40.273Z,77.58
2017-07-25T19:08:10.110Z,77.22
2017-07-25T19:10:40.074Z,77.02
2017-07-25T19:13:09.965Z,77.19
2017-07-25T19:15:40.117Z,76.98
2017-07-25T19:18:10.150Z,77.19
2017-07-25T19:20:40.135Z,77.28
2017-07-25T19:23:10.172Z,76.99
2017-07-25T19:25:40.119Z,77.06
2017-07-25T19:28:10.293Z,76.94
2017-07-25T19:30:40.375Z,77.29
2017-07-25T19:33:10.431Z,77.15
2017-07-25T19:35:40.700Z,76.79
2017-07-25T19:38:10.531Z,76.56
2017-07-25T19:40:40.402Z,76.33
2017-07-25T19:43:10.412Z,75.74
2017-07-25T19:45:40.141Z,75.79
2017-07-25T19:48:09.797Z,75.38
2017-07-25T19:50:39.808Z,75.94
2017-07-25T19:53:09.831Z,77.12
2017-07-25T19:55:39.707Z,77.57
2017-07-25T19:58:09.819Z,77.26
2017-07-25T20:00:39.922Z,77.73
2017-07-25T20:03:09.778Z,77.90
2017-07-25T20:05:39.862Z,78.17
2017-07-25T20:08:09.953Z,78.08
2017-07-25T20:10:40.009Z,78.21
2017-07-25T20:13:10.062Z,78.22
2017-07-25T20:15:39.914Z,77.99
2017-07-25T20:18:09.760Z,77.91
2017-07-25T20:20:39.736Z,77.59
2017-07-25T20:23:09.566Z,77.70
2017-07-25T20:25:39.467Z,78.02
2017-07-25T20:28:09.436Z,77.68
2017-07-25T20:30:39.406Z,77.74
2017-07-25T20:33:09.535Z,77.59
2017-07-25T20:35:39.553Z,77.13
2017-07-25T20:38:09.288Z,77.28
2017-07-25T20:40:39.593Z,77.07
2017-07-25T20:43:09.601Z,77.01
2017-07-25T20:45:40.152Z,77.24
2017-07-25T20:48:10.072Z,76.94
2017-07-25T20:50:40.113Z,76.95
2017-07-25T20:53:10.323Z,76.89
2017-07-25T20:55:40.457Z,76.79
2017-07-25T20:58:10.304Z,76.99
2017-07-25T21:00:40.164Z,77.13
2017-07-25T21:03:10.101Z,76.89
2017-07-25T21:05:40.013Z,77.11
2017-07-25T21:08:10.255Z,76.91
2017-07-25T21:10:40.469Z,76.55
2017-07-25T21:13:10.287Z,76.58
2017-07-25T21:15:40.412Z,76.28
2017-07-25T21:18:10.437Z,76.49
2017-07-25T21:20:40.503Z,76.98
2017-07-25T21:23:10.245Z,76.47
2017-07-25T21:25:40.190Z,76.54
2017-07-25T21:28:10.218Z,76.15
2017-07-25T21:30:40.161Z,76.10
2017-07-25T21:33:10.017Z,75.74
2017-07-25T21:35:39.898Z,75.61
2017-07-25T21:38:09.992Z,75.71
2017-07-25T21:40:40.225Z,75.43
2017-07-25T21:43:10.084Z,75.85
2017-07-25T21:45:40.269Z,75.11
2017-07-25T21:48:10.124Z,75.35
2017-07-25T21:50:40.003Z,74.52
2017-07-25T21:53:10.005Z,75.05
2017-07-25T21:55:39.777Z,75.14
2017-07-25T21:58:09.854Z,75.16
2017-07-25T22:00:39.588Z,74.96
2017-07-25T22:03:34.336Z,74.43
2017-07-25T22:06:04.017Z,74.90
2017-07-25T22:08:33.422Z,74.32
2017-07-25T22:11:02.783Z,74.49
2017-07-25T22:13:32.350Z,74.94
2017-07-25T22:16:01.817Z,75.36
2017-07-25T22:18:31.301Z,75.23
2017-07-25T22:21:01.253Z,74.50
2017-07-25T22:23:30.785Z,74.74
2017-07-25T22:26:00.410Z,75.09
2017-07-25T22:28:29.796Z,75.34
2017-07-25T22:30:59.137Z,75.35
2017-07-25T22:33:28.880Z,75.87
2017-07-25T22:35:58.619Z,76.13
2017-07-25T22:38:28.215Z,77.58
2017-07-25T22:40:57.630Z,78.26
2017-07-25T22:43:26.892Z,79.43
2017-07-25T22:45:56.250Z,80.33
2017-07-25T22:48:25.655Z,80.47
2017-07-25T22:50:54.995Z,80.63
2017-07-25T22:53:24.402Z,80.76
2017-07-25T22:55:53.931Z,80.70
2017-07-25T22:58:23.296Z,81.10
2017-07-25T23:00:53.128Z,81.36
2017-07-25T23:03:22.650Z,80.52
2017-07-25T23:05:52.766Z,80.13
2017-07-25T23:08:22.437Z,79.85
2017-07-25T23:10:52.204Z,79.89
2017-07-25T23:13:21.616Z,79.81
2017-07-25T23:15:51.284Z,79.76
2017-07-25T23:18:20.807Z,79.92
2017-07-25T23:20:50.725Z,79.76
2017-07-25T23:23:19.984Z,79.54
2017-07-25T23:25:49.347Z,79.96
2017-07-25T23:28:18.722Z,79.85
2017-07-25T23:30:48.563Z,79.75
2017-07-25T23:33:18.067Z,80.36
2017-07-25T23:35:47.677Z,79.97
2017-07-25T23:38:17.133Z,79.33
2017-07-25T23:40:46.809Z,79.47
2017-07-25T23:43:16.256Z,79.33
2017-07-25T23:45:45.656Z,78.26
2017-07-25T23:48:15.202Z,78.79
2017-07-25T23:50:44.608Z,78.62
2017-07-25T23:53:13.955Z,78.43
2017-07-25T23:55:43.768Z,78.66
2017-07-25T23:58:13.659Z,78.65
